Time;durP1;ratioP1;P1;durP2;ratioP2;P2;SDS_P1;SDS_P2;PMS_P1;PMS_P2;Temp;Humidity;BMP_temperature;BMP_pressure;BME280_temperature;BME280_humidity;BME280_pressure;Samples;Min_cycle;Max_cycle;Signal;HPM_P1;HPM_P2
2022/09/25 00:01:38;;;;;;;23.03;19.63;;;13.40;1.00;;;;;;5007611;28;20275;-64
2022/09/25 00:04:04;;;;;;;19.83;17.70;;;13.30;1.00;;;;;;5006361;28;20216;-65
2022/09/25 00:06:30;;;;;;;24.13;18.07;;;13.30;1.00;;;;;;5008207;28;20433;-65
2022/09/25 00:08:56;;;;;;;19.50;17.40;;;13.40;1.00;;;;;;5007802;28;20433;-65
2022/09/25 00:11:27;;;;;;;19.20;17.20;;;13.50;1.00;;;;;;5007190;28;21256;-65
2022/09/25 00:13:54;;;;;;;18.97;16.97;;;13.50;1.00;;;;;;5007770;28;20447;-65
2022/09/25 00:16:23;;;;;;;23.30;16.70;;;13.50;1.00;;;;;;5008417;28;20423;-65
2022/09/25 00:21:35;;;;;;;18.43;16.47;;;13.40;1.00;;;;;;5002393;28;20466;-65
2022/09/25 00:24:04;;;;;;;18.83;16.47;;;13.40;1.00;;;;;;5007534;28;20439;-65
2022/09/25 00:26:33;;;;;;;18.57;15.90;;;13.50;1.00;;;;;;5009319;28;20439;-65
2022/09/25 00:29:00;;;;;;;17.20;15.40;;;13.50;1.00;;;;;;5007607;28;20431;-65
2022/09/25 00:31:27;;;;;;;17.13;15.27;;;13.50;1.00;;;;;;5006049;28;20581;-65
2022/09/25 00:33:57;;;;;;;16.73;15.03;;;13.50;1.00;;;;;;5007331;28;20548;-65
2022/09/25 00:36:23;;;;;;;16.50;14.73;;;13.50;1.00;;;;;;5007968;28;20428;-65
2022/09/25 00:38:49;;;;;;;19.70;17.70;;;13.50;1.00;;;;;;5008709;28;20422;-65
2022/09/25 00:41:17;;;;;;;19.00;15.37;;;13.50;1.00;;;;;;5007005;28;20720;-65
2022/09/25 00:43:51;;;;;;;17.60;15.70;;;13.50;1.00;;;;;;5007022;28;20458;-65
2022/09/25 00:46:32;;;;;;;15.83;14.10;;;13.50;1.00;;;;;;5007455;28;20513;-63
2022/09/25 00:49:10;;;;;;;14.90;13.40;;;13.50;1.00;;;;;;5007423;28;20917;-65
2022/09/25 00:51:41;;;;;;;17.43;14.77;;;13.40;1.00;;;;;;5002237;28;20506;-64
2022/09/25 00:54:37;;;;;;;16.17;14.47;;;13.40;1.00;;;;;;5007185;28;20434;-65
2022/09/25 00:57:07;;;;;;;19.30;14.47;;;13.40;1.00;;;;;;5005855;28;20433;-65
2022/09/25 00:59:38;;;;;;;73.57;18.33;;;13.50;1.00;;;;;;5002865;28;20519;-65
2022/09/25 01:02:06;;;;;;;34.00;17.30;;;13.50;1.00;;;;;;5000299;28;20493;-66
2022/09/25 01:04:36;;;;;;;24.10;16.47;;;13.50;1.00;;;;;;5002351;28;20473;-66
2022/09/25 01:07:02;;;;;;;31.80;17.60;;;13.60;1.00;;;;;;5007330;28;20504;-65
2022/09/25 01:09:28;;;;;;;23.03;14.90;;;13.60;1.00;;;;;;5008142;28;20517;-65
2022/09/25 01:11:54;;;;;;;17.60;14.20;;;13.60;1.00;;;;;;5007493;28;20531;-64
2022/09/25 01:14:20;;;;;;;15.63;14.03;;;13.60;1.00;;;;;;5010141;28;20435;-65
2022/09/25 01:17:00;;;;;;;17.60;14.90;;;13.70;1.00;;;;;;5010734;28;20190;-65
2022/09/25 01:20:03;;;;;;;19.07;16.47;;;13.70;1.00;;;;;;5011080;28;21038;-65
2022/09/25 01:22:45;;;;;;;17.33;15.40;;;13.70;1.00;;;;;;5010240;28;20453;-65
2022/09/25 01:25:27;;;;;;;18.43;15.57;;;13.60;1.00;;;;;;5010255;28;20775;-65
2022/09/25 01:28:05;;;;;;;26.50;15.60;;;13.60;1.00;;;;;;5009816;28;20431;-64
2022/09/25 01:30:35;;;;;;;17.80;15.67;;;13.60;1.00;;;;;;5010650;28;20429;-65
2022/09/25 01:33:24;;;;;;;17.53;15.03;;;13.60;1.00;;;;;;5009875;28;20446;-64
2022/09/25 01:36:09;;;;;;;16.23;14.30;;;13.50;1.00;;;;;;5007879;28;20426;-65
2022/09/25 01:38:54;;;;;;;18.87;15.23;;;13.50;1.00;;;;;;5005442;28;20531;-66
2022/09/25 01:41:23;;;;;;;18.30;14.70;;;13.60;1.00;;;;;;5008332;28;20458;-66
2022/09/25 01:44:00;;;;;;;17.90;14.90;;;13.60;1.00;;;;;;5010156;28;20452;-66
2022/09/25 01:46:33;;;;;;;17.20;13.97;;;13.60;1.00;;;;;;5010771;28;20426;-65
2022/09/25 01:49:06;;;;;;;16.77;14.97;;;13.70;1.00;;;;;;5010522;28;20429;-65
2022/09/25 01:51:45;;;;;;;19.53;14.07;;;13.70;1.00;;;;;;5009898;28;20454;-66
2022/09/25 01:54:16;;;;;;;22.73;17.10;;;13.70;1.00;;;;;;5009127;28;20451;-66
2022/09/25 01:56:53;;;;;;;16.67;14.70;;;13.60;1.00;;;;;;5009871;28;20478;-66
2022/09/25 01:59:39;;;;;;;16.80;14.27;;;13.60;1.00;;;;;;5011033;28;20458;-66
2022/09/25 02:02:09;;;;;;;16.00;14.00;;;13.60;1.00;;;;;;5008013;28;20822;-66
2022/09/25 02:04:41;;;;;;;19.77;14.83;;;13.60;1.00;;;;;;5005368;28;20431;-66
2022/09/25 02:07:11;;;;;;;14.93;13.37;;;13.50;1.00;;;;;;5009717;28;20466;-66
2022/09/25 02:09:46;;;;;;;17.00;13.77;;;13.40;1.00;;;;;;5005174;28;20993;-66
2022/09/25 02:12:21;;;;;;;16.03;14.33;;;13.40;1.00;;;;;;5008274;28;20475;-66
2022/09/25 02:14:52;;;;;;;19.70;15.30;;;13.40;1.00;;;;;;5010095;28;20436;-66
2022/09/25 02:23:17;;;;;;;17.20;15.37;;;13.20;1.00;;;;;;5008082;28;20529;-65
2022/09/25 02:25:59;;;;;;;16.87;13.53;;;13.20;1.00;;;;;;5005643;28;20428;-65
2022/09/25 02:28:25;;;;;;;18.43;16.53;;;13.20;1.00;;;;;;5008947;28;20441;-65
2022/09/25 02:30:53;;;;;;;17.70;15.13;;;13.20;1.00;;;;;;5009177;28;20760;-64
2022/09/25 02:33:19;;;;;;;22.33;15.20;;;13.30;1.00;;;;;;5009725;28;20200;-66
2022/09/25 02:35:45;;;;;;;16.33;13.83;;;13.30;1.00;;;;;;5009755;28;20419;-66
2022/09/25 02:38:11;;;;;;;17.87;13.80;;;13.30;1.00;;;;;;5008700;28;20439;-66
2022/09/25 02:40:49;;;;;;;17.60;15.00;;;13.40;1.00;;;;;;5009312;28;20637;-65
2022/09/25 02:43:29;;;;;;;17.90;15.30;;;13.40;1.00;;;;;;5008254;28;20248;-66
2022/09/25 02:46:18;;;;;;;15.80;14.07;;;13.40;1.00;;;;;;5008834;28;20420;-66
2022/09/25 02:49:00;;;;;;;13.80;12.40;;;13.40;1.00;;;;;;5004693;28;20431;-66
2022/09/25 02:51:35;;;;;;;19.13;16.43;;;13.50;1.00;;;;;;5008423;28;20875;-66
2022/09/25 02:54:33;;;;;;;15.07;13.50;;;13.50;1.00;;;;;;5008926;28;20972;-66
2022/09/25 02:57:15;;;;;;;15.90;14.27;;;13.50;1.00;;;;;;5005979;28;20512;-65
2022/09/25 02:59:55;;;;;;;21.40;15.37;;;13.50;1.00;;;;;;5004602;28;20427;-66
2022/09/25 03:02:22;;;;;;;17.93;15.03;;;13.40;1.00;;;;;;5008107;28;20557;-66
2022/09/25 03:04:49;;;;;;;15.70;14.07;;;13.50;1.00;;;;;;5008922;28;20428;-65
2022/09/25 03:07:16;;;;;;;16.27;13.63;;;13.50;1.00;;;;;;5008683;28;20426;-65
2022/09/25 03:09:45;;;;;;;18.40;15.33;;;13.50;1.00;;;;;;5009681;28;20442;-66
2022/09/25 03:12:13;;;;;;;20.37;14.90;;;13.40;1.00;;;;;;5007117;28;20448;-66
2022/09/25 03:14:39;;;;;;;16.87;15.00;;;13.40;1.00;;;;;;5008550;28;20514;-66
2022/09/25 03:17:06;;;;;;;14.90;13.33;;;13.40;1.00;;;;;;5007964;28;21027;-65
2022/09/25 03:19:33;;;;;;;14.20;12.77;;;13.40;1.00;;;;;;5008645;28;20223;-65
2022/09/25 03:22:00;;;;;;;15.97;14.37;;;13.40;1.00;;;;;;5007592;28;20462;-65
2022/09/25 03:24:26;;;;;;;14.60;13.10;;;13.40;1.00;;;;;;5008930;28;20434;-65
2022/09/25 03:26:52;;;;;;;15.30;13.70;;;13.30;1.00;;;;;;5007275;28;20423;-64
2022/09/25 03:29:19;;;;;;;13.77;11.97;;;13.30;1.00;;;;;;5008946;28;20434;-65
2022/09/25 03:31:45;;;;;;;15.57;13.00;;;13.30;1.00;;;;;;5008255;28;20442;-65
2022/09/25 03:34:12;;;;;;;14.93;11.60;;;13.30;1.00;;;;;;5007872;28;20435;-65
2022/09/25 03:36:38;;;;;;;15.07;12.00;;;13.30;1.00;;;;;;5008422;28;20234;-64
2022/09/25 03:39:05;;;;;;;16.10;11.10;;;13.30;1.00;;;;;;5008364;28;20430;-64
2022/09/25 03:41:33;;;;;;;16.93;11.30;;;13.40;1.00;;;;;;5007995;28;20462;-65
2022/09/25 03:44:00;;;;;;;13.27;11.50;;;13.40;1.00;;;;;;5008297;28;21014;-65
2022/09/25 03:46:31;;;;;;;12.50;11.20;;;13.40;1.00;;;;;;5008819;28;20414;-66
2022/09/25 03:48:57;;;;;;;11.50;9.83;;;13.30;1.00;;;;;;5008042;28;20942;-65
2022/09/25 03:51:24;;;;;;;16.17;12.87;;;13.30;1.00;;;;;;5007248;28;20435;-65
2022/09/25 03:53:51;;;;;;;13.93;10.57;;;13.30;1.00;;;;;;5009046;28;20443;-65
2022/09/25 03:56:19;;;;;;;16.90;10.90;;;13.20;1.00;;;;;;5009023;28;20480;-65
2022/09/25 03:58:46;;;;;;;12.30;10.23;;;13.20;1.00;;;;;;5008894;28;20462;-65
2022/09/25 04:01:14;;;;;;;13.40;10.87;;;13.20;1.00;;;;;;5006884;28;20821;-65
2022/09/25 04:03:40;;;;;;;15.20;11.70;;;13.30;1.00;;;;;;5008325;28;20466;-66
2022/09/25 04:06:13;;;;;;;14.47;10.13;;;13.30;1.00;;;;;;5007147;28;20510;-65
2022/09/25 04:08:39;;;;;;;12.50;10.80;;;13.30;1.00;;;;;;5003048;28;20972;-65
2022/09/25 04:11:05;;;;;;;12.87;10.87;;;13.30;1.00;;;;;;5006914;28;20526;-65
2022/09/25 04:13:35;;;;;;;33.13;12.10;;;13.30;1.00;;;;;;5007472;28;20922;-65
2022/09/25 04:16:03;;;;;;;13.23;10.23;;;13.30;1.00;;;;;;5007678;28;20623;-65
2022/09/25 04:18:30;;;;;;;12.37;11.07;;;13.30;1.00;;;;;;5008299;28;20455;-65
2022/09/25 04:20:57;;;;;;;15.90;10.80;;;13.20;1.00;;;;;;5007095;28;20423;-66
2022/09/25 04:23:23;;;;;;;13.77;11.10;;;13.20;1.00;;;;;;5007047;28;20466;-66
2022/09/25 04:25:48;;;;;;;15.00;12.60;;;13.20;1.00;;;;;;5008456;28;21010;-66
2022/09/25 04:28:14;;;;;;;12.17;10.97;;;13.20;1.00;;;;;;5006890;28;20191;-65
2022/09/25 04:30:40;;;;;;;11.93;10.37;;;13.00;1.00;;;;;;5007570;28;20172;-66
2022/09/25 04:35:50;;;;;;;11.37;9.60;;;13.00;1.00;;;;;;5005226;28;20191;-65
2022/09/25 04:38:16;;;;;;;11.13;10.00;;;13.00;1.00;;;;;;5007118;28;20423;-66
2022/09/25 04:40:41;;;;;;;10.43;9.33;;;13.00;1.00;;;;;;5007737;28;20180;-66
2022/09/25 04:43:07;;;;;;;13.50;10.70;;;13.00;1.00;;;;;;5006919;28;20752;-67
2022/09/25 04:45:35;;;;;;;28.07;12.60;;;13.10;1.00;;;;;;5008568;28;20230;-66
2022/09/25 04:48:02;;;;;;;31.00;12.20;;;13.20;1.00;;;;;;5010574;28;20176;-67
2022/09/25 04:50:28;;;;;;;20.00;11.27;;;13.20;1.00;;;;;;5011933;28;20430;-65
2022/09/25 04:52:56;;;;;;;13.23;9.90;;;13.30;1.00;;;;;;5010959;28;20470;-66
2022/09/25 04:55:23;;;;;;;23.33;13.63;;;13.00;1.00;;;;;;5011488;28;20426;-67
2022/09/25 04:57:51;;;;;;;12.73;11.40;;;12.90;1.00;;;;;;5010851;28;20473;-66
2022/09/25 05:00:18;;;;;;;14.43;11.50;;;12.80;1.00;;;;;;5009603;28;20441;-65
2022/09/25 05:02:47;;;;;;;14.07;12.40;;;12.70;1.00;;;;;;5011487;28;20517;-65
2022/09/25 05:05:14;;;;;;;17.50;13.47;;;12.60;1.00;;;;;;5010846;28;20513;-65
2022/09/25 05:07:39;;;;;;;18.53;14.07;;;12.70;1.00;;;;;;5011304;28;20434;-66
2022/09/25 05:10:09;;;;;;;19.03;15.73;;;12.70;1.00;;;;;;5010787;28;20431;-65
2022/09/25 05:12:35;;;;;;;19.03;14.63;;;12.60;1.00;;;;;;5005286;28;20806;-65
2022/09/25 05:15:01;;;;;;;17.87;14.70;;;12.50;1.00;;;;;;5010083;28;20453;-65
2022/09/25 05:17:27;;;;;;;14.73;12.60;;;12.50;1.00;;;;;;5010786;28;20427;-64
2022/09/25 05:19:52;;;;;;;15.63;13.67;;;12.50;1.00;;;;;;5009065;28;20176;-65
2022/09/25 05:22:18;;;;;;;17.50;12.40;;;12.40;1.00;;;;;;5009659;28;20250;-64
2022/09/25 05:24:43;;;;;;;17.37;13.23;;;12.50;1.00;;;;;;5011305;28;20211;-63
2022/09/25 05:27:09;;;;;;;19.00;12.70;;;12.60;1.00;;;;;;5008264;28;20230;-65
2022/09/25 05:29:35;;;;;;;29.30;14.73;;;12.60;1.00;;;;;;5009552;28;20271;-63
2022/09/25 05:32:01;;;;;;;29.67;15.07;;;12.70;1.00;;;;;;5009509;28;20668;-63
2022/09/25 05:34:26;;;;;;;15.00;13.10;;;12.90;1.00;;;;;;5010979;28;20202;-64
2022/09/25 05:36:52;;;;;;;20.50;13.70;;;12.90;1.00;;;;;;5011324;28;20184;-64
2022/09/25 05:39:18;;;;;;;19.03;13.50;;;13.00;1.00;;;;;;5009803;28;20181;-65
2022/09/25 05:41:43;;;;;;;18.10;13.00;;;13.00;1.00;;;;;;5009095;28;20738;-66
2022/09/25 05:44:10;;;;;;;18.13;13.60;;;13.00;1.00;;;;;;5009896;28;20180;-64
2022/09/25 05:46:36;;;;;;;20.93;12.77;;;13.00;1.00;;;;;;5011011;28;20199;-64
2022/09/25 05:49:02;;;;;;;25.97;14.27;;;13.00;1.00;;;;;;5009914;28;20462;-63
2022/09/25 05:51:28;;;;;;;20.43;13.60;;;13.00;1.00;;;;;;5011515;28;20298;-64
2022/09/25 05:53:54;;;;;;;21.17;14.17;;;13.10;1.00;;;;;;5010642;28;20488;-64
2022/09/25 05:56:20;;;;;;;19.10;13.30;;;13.10;1.00;;;;;;5011339;28;20226;-64
2022/09/25 05:58:47;;;;;;;19.90;13.27;;;13.00;1.00;;;;;;5009962;28;20435;-64
2022/09/25 06:01:13;;;;;;;28.90;13.10;;;13.00;1.00;;;;;;5009650;28;20176;-64
2022/09/25 06:03:38;;;;;;;23.23;12.33;;;13.10;1.00;;;;;;5010192;28;20532;-64
2022/09/25 06:06:05;;;;;;;14.17;10.23;;;13.20;1.00;;;;;;5009354;28;20245;-64
2022/09/25 06:08:31;;;;;;;14.77;9.37;;;13.20;1.00;;;;;;5010562;28;20696;-64
2022/09/25 06:10:58;;;;;;;37.57;13.73;;;13.20;1.00;;;;;;5009095;28;20797;-65
2022/09/25 06:13:24;;;;;;;36.43;11.93;;;13.30;1.00;;;;;;5009643;28;20454;-66
2022/09/25 06:15:51;;;;;;;23.47;12.67;;;13.30;1.00;;;;;;5009758;28;20427;-62
2022/09/25 06:18:20;;;;;;;26.67;12.40;;;13.30;1.00;;;;;;5005973;28;20193;-67
2022/09/25 06:20:46;;;;;;;14.53;11.03;;;13.20;1.00;;;;;;5008531;28;20692;-65
2022/09/25 06:23:12;;;;;;;12.57;10.60;;;13.30;1.00;;;;;;5008076;28;20475;-63
2022/09/25 06:25:37;;;;;;;13.07;10.47;;;13.30;1.00;;;;;;5009951;28;20438;-65
2022/09/25 06:28:04;;;;;;;16.67;10.13;;;13.20;1.00;;;;;;5007850;28;20180;-64
2022/09/25 06:30:34;;;;;;;19.90;10.57;;;13.20;1.00;;;;;;5008423;28;20191;-65
2022/09/25 06:33:03;;;;;;;13.77;9.77;;;13.30;1.00;;;;;;5006269;28;20583;-65
2022/09/25 06:35:29;;;;;;;16.23;11.10;;;13.30;1.00;;;;;;5009774;28;20447;-64
2022/09/25 06:37:58;;;;;;;34.00;15.27;;;13.30;1.00;;;;;;5009547;28;20521;-65
2022/09/25 06:40:30;;;;;;;52.00;16.30;;;13.30;1.00;;;;;;5008944;28;20954;-64
2022/09/25 06:43:02;;;;;;;33.00;10.70;;;13.30;1.00;;;;;;5007272;28;20552;-65
2022/09/25 06:45:32;;;;;;;28.67;9.67;;;13.30;1.00;;;;;;5009412;28;20419;-65
2022/09/25 06:48:05;;;;;;;12.47;8.60;;;13.30;1.00;;;;;;5008629;28;21037;-65
2022/09/25 06:50:55;;;;;;;13.83;8.20;;;13.30;1.00;;;;;;5008732;28;20427;-64
2022/09/25 06:53:23;;;;;;;14.03;8.40;;;13.20;1.00;;;;;;4996286;28;20461;-64
2022/09/25 06:55:49;;;;;;;17.47;10.13;;;13.10;1.00;;;;;;5010505;28;20480;-64
2022/09/25 06:58:18;;;;;;;9.93;8.50;;;13.10;1.00;;;;;;5001853;28;20441;-65
2022/09/25 07:00:52;;;;;;;11.20;8.37;;;13.00;1.00;;;;;;5004431;28;20471;-67
2022/09/25 07:06:04;;;;;;;12.50;8.77;;;13.00;1.00;;;;;;5005702;28;20497;-65
2022/09/25 07:08:30;;;;;;;15.80;9.73;;;13.00;1.00;;;;;;5001891;28;20443;-66
2022/09/25 07:10:57;;;;;;;11.87;10.60;;;13.20;1.00;;;;;;5002156;28;20428;-66
2022/09/25 07:13:26;;;;;;;14.57;10.70;;;13.30;1.00;;;;;;5009916;28;20196;-65
2022/09/25 07:16:18;;;;;;;24.83;11.83;;;13.30;1.00;;;;;;5008453;28;20431;-67
2022/09/25 07:18:45;;;;;;;13.10;10.43;;;13.40;1.00;;;;;;5002187;28;20439;-65
2022/09/25 07:21:13;;;;;;;38.73;13.00;;;13.30;1.00;;;;;;5007699;28;20609;-66
2022/09/25 07:23:40;;;;;;;67.43;16.37;;;13.40;1.00;;;;;;5010104;28;20478;-66
2022/09/25 07:26:11;;;;;;;25.47;11.37;;;13.40;1.00;;;;;;5008709;28;20431;-67
2022/09/25 07:28:38;;;;;;;29.47;12.10;;;13.30;1.00;;;;;;5004347;28;20407;-67
2022/09/25 07:31:14;;;;;;;18.73;10.93;;;13.30;1.00;;;;;;5008645;28;20883;-66
2022/09/25 07:33:40;;;;;;;13.27;10.40;;;13.30;1.00;;;;;;5004148;28;20824;-66
2022/09/25 07:36:06;;;;;;;14.17;11.30;;;13.10;1.00;;;;;;5007965;28;20442;-67
2022/09/25 07:38:33;;;;;;;18.93;11.70;;;13.10;1.00;;;;;;5004002;28;20180;-68
2022/09/25 07:40:59;;;;;;;17.40;11.03;;;13.10;1.00;;;;;;5008931;28;20953;-66
2022/09/25 07:43:24;;;;;;;21.80;11.40;;;13.20;1.00;;;;;;5009577;28;20463;-66
2022/09/25 07:45:53;;;;;;;12.53;11.23;;;13.20;1.00;;;;;;5006045;28;20685;-67
2022/09/25 07:48:20;;;;;;;19.37;11.30;;;13.20;1.00;;;;;;5002162;28;20184;-67
2022/09/25 07:50:48;;;;;;;23.93;12.47;;;13.30;1.00;;;;;;5008592;28;20419;-67
2022/09/25 07:53:13;;;;;;;25.47;12.17;;;13.30;1.00;;;;;;5008703;28;20582;-67
2022/09/25 07:55:40;;;;;;;17.97;12.10;;;13.40;1.00;;;;;;5009522;28;20431;-68
2022/09/25 07:58:06;;;;;;;22.03;12.00;;;13.50;1.00;;;;;;5007729;28;20267;-68
2022/09/25 08:00:31;;;;;;;28.40;12.33;;;13.60;1.00;;;;;;5006994;28;21019;-68
2022/09/25 08:02:58;;;;;;;15.90;11.63;;;13.60;1.00;;;;;;5008459;28;20210;-67
2022/09/25 08:05:25;;;;;;;29.37;14.37;;;13.70;1.00;;;;;;5008871;28;20360;-68
2022/09/25 08:07:52;;;;;;;32.77;11.97;;;13.90;1.00;;;;;;5003369;28;20461;-67
2022/09/25 08:10:18;;;;;;;22.57;12.30;;;14.10;1.00;;;;;;5008711;28;20438;-67
2022/09/25 08:12:44;;;;;;;13.37;10.47;;;14.10;1.00;;;;;;5007990;28;20451;-66
2022/09/25 08:15:10;;;;;;;23.80;11.90;;;14.10;1.00;;;;;;5008814;28;20184;-67
2022/09/25 08:17:35;;;;;;;22.57;13.17;;;14.10;1.00;;;;;;5009414;28;20184;-67
2022/09/25 08:20:01;;;;;;;23.20;11.83;;;14.10;99.90;;;;;;4998147;28;20450;-66
2022/09/25 08:22:27;;;;;;;13.70;11.80;;;14.00;1.00;;;;;;5002149;28;20706;-66
2022/09/25 08:24:53;;;;;;;16.80;11.20;;;14.00;1.00;;;;;;5012160;28;20431;-66
2022/09/25 08:27:18;;;;;;;15.73;12.40;;;14.00;1.00;;;;;;5011446;28;20602;-67
2022/09/25 08:29:45;;;;;;;21.80;12.73;;;13.90;1.00;;;;;;5017862;28;20215;-67
2022/09/25 08:32:11;;;;;;;23.40;11.70;;;13.90;1.00;;;;;;5008625;28;20712;-66
2022/09/25 08:34:36;;;;;;;27.90;12.20;;;14.00;1.00;;;;;;5014183;28;20431;-65
2022/09/25 08:37:03;;;;;;;16.17;12.37;;;14.00;1.00;;;;;;5012465;28;20659;-66
2022/09/25 08:39:28;;;;;;;13.37;10.97;;;14.10;1.00;;;;;;5012284;28;20656;-66
2022/09/25 08:41:55;;;;;;;58.23;14.30;;;14.20;99.90;;;;;;5010090;28;20470;-65
2022/09/25 08:44:40;;;;;;;25.53;12.10;;;14.20;99.90;;;;;;5011513;28;20267;-65
2022/09/25 08:50:15;;;;;;;16.83;10.60;;;14.10;1.00;;;;;;5002758;28;20451;-67
2022/09/25 08:52:44;;;;;;;14.10;11.77;;;14.40;1.00;;;;;;4987342;28;20439;-67
2022/09/25 08:55:22;;;;;;;21.10;11.40;;;14.20;1.00;;;;;;4991734;28;20490;-67
2022/09/25 08:57:54;;;;;;;12.87;11.23;;;14.20;1.00;;;;;;4989033;28;20794;-66
2022/09/25 09:00:22;;;;;;;21.40;11.20;;;14.20;1.00;;;;;;4985819;28;20868;-68
2022/09/25 09:02:53;;;;;;;25.03;12.50;;;14.20;1.00;;;;;;4989570;28;20513;-68
2022/09/25 09:05:31;;;;;;;14.67;10.20;;;14.30;1.00;;;;;;4988397;28;20438;-66
2022/09/25 09:08:28;;;;;;;16.60;9.90;;;14.20;1.00;;;;;;4990172;28;20416;-66
2022/09/25 09:11:03;;;;;;;17.63;11.37;;;14.40;1.00;;;;;;4981419;28;20412;-69
2022/09/25 09:13:50;;;;;;;13.10;8.60;;;14.50;1.00;;;;;;4990259;28;20435;-69
2022/09/25 09:16:21;;;;;;;10.70;9.60;;;14.50;1.00;;;;;;4991836;28;20424;-65
2022/09/25 09:18:48;;;;;;;14.77;10.23;;;14.40;1.00;;;;;;4990723;28;20479;-69
2022/09/25 09:21:50;;;;;;;12.50;8.33;;;14.40;1.00;;;;;;4991646;28;20412;-69
2022/09/25 09:24:40;;;;;;;11.20;8.87;;;14.30;1.00;;;;;;4981600;28;20518;-65
2022/09/25 09:27:06;;;;;;;18.93;9.80;;;14.50;1.00;;;;;;4988761;28;22131;-65
2022/09/25 09:29:37;;;;;;;15.23;9.70;;;14.80;1.00;;;;;;4988034;28;20421;-67
2022/09/25 09:32:21;;;;;;;13.60;9.17;;;15.30;99.90;;;;;;4988908;28;20585;-68
2022/09/25 09:34:47;;;;;;;9.93;7.77;;;15.70;1.00;;;;;;4979950;28;20427;-67
2022/09/25 09:37:16;;;;;;;19.70;8.73;;;15.90;1.00;;;;;;4989433;28;20420;-67
2022/09/25 09:40:02;;;;;;;12.63;8.57;;;16.10;99.90;;;;;;4989661;28;20228;-69
2022/09/25 09:42:44;;;;;;;14.00;9.60;;;16.50;99.90;;;;;;4988898;28;20463;-68
2022/09/25 09:45:20;;;;;;;78.87;14.07;;;16.60;99.90;;;;;;4991713;28;20451;-69
2022/09/25 09:48:12;;;;;;;15.53;9.00;;;16.80;1.00;;;;;;4993482;28;20478;-67
2022/09/25 09:50:50;;;;;;;11.90;8.73;;;16.60;99.90;;;;;;4986107;28;20841;-69
2022/09/25 09:53:38;;;;;;;22.20;9.63;;;16.20;48.20;;;;;;4990461;28;20464;-68
2022/09/25 09:56:26;;;;;;;28.80;11.80;;;16.40;99.90;;;;;;4991551;28;20837;-68
2022/09/25 09:59:01;;;;;;;29.53;10.70;;;17.00;99.90;;;;;;4987332;28;20436;-67
2022/09/25 10:01:56;;;;;;;12.80;8.40;;;17.70;1.00;;;;;;4990455;28;20426;-67
2022/09/25 10:04:30;;;;;;;11.10;8.20;;;17.90;1.00;;;;;;5005411;28;20888;-67
2022/09/25 10:07:05;;;;;;;11.60;8.07;;;17.60;1.00;;;;;;4991088;28;20440;-67
2022/09/25 10:09:31;;;;;;;9.60;8.20;;;17.30;1.00;;;;;;4991778;28;20783;-68
2022/09/25 10:12:06;;;;;;;10.80;7.37;;;17.10;1.00;;;;;;4989944;28;20785;-68
2022/09/25 10:14:38;;;;;;;11.97;8.20;;;17.30;1.00;;;;;;4991012;28;20525;-68
2022/09/25 10:17:06;;;;;;;14.17;6.73;;;17.50;1.00;;;;;;4989370;28;20503;-68
2022/09/25 10:19:56;;;;;;;13.40;6.97;;;17.80;1.00;;;;;;4990822;28;21070;-67
2022/09/25 10:22:27;;;;;;;7.73;6.50;;;18.30;1.00;;;;;;4990499;28;20503;-69
2022/09/25 10:25:04;;;;;;;7.67;6.97;;;18.90;99.90;;;;;;4988501;28;20425;-68
2022/09/25 10:27:37;;;;;;;8.53;7.40;;;19.10;1.00;;;;;;4970364;28;20516;-68
2022/09/25 10:30:08;;;;;;;7.27;6.57;;;19.20;1.00;;;;;;4985516;28;20423;-68
2022/09/25 10:32:41;;;;;;;7.00;6.40;;;19.50;1.00;;;;;;4988901;28;20444;-69
2022/09/25 10:35:13;;;;;;;14.73;7.87;;;19.70;1.00;;;;;;4989377;28;20412;-69
2022/09/25 10:37:40;;;;;;;8.10;7.30;;;19.90;1.00;;;;;;4990488;28;20400;-69
2022/09/25 10:40:21;;;;;;;10.50;6.83;;;19.60;1.00;;;;;;4989617;28;20795;-66
2022/09/25 10:42:47;;;;;;;8.63;7.73;;;19.40;1.00;;;;;;4986653;28;20774;-68
2022/09/25 10:45:27;;;;;;;28.70;8.97;;;19.40;1.00;;;;;;4988380;28;20413;-64
2022/09/25 10:50:37;;;;;;;9.57;6.43;;;19.50;1.00;;;;;;4982872;28;20494;-68
2022/09/25 10:53:04;;;;;;;9.00;6.63;;;19.80;1.00;;;;;;4987956;28;20444;-68
2022/09/25 10:55:33;;;;;;;13.97;7.77;;;19.80;1.00;;;;;;4988585;28;21065;-67
2022/09/25 10:58:05;;;;;;;9.03;6.90;;;19.70;1.00;;;;;;4987756;28;20416;-68
2022/09/25 11:00:52;;;;;;;17.77;8.97;;;19.20;1.00;;;;;;4985617;28;20443;-68
2022/09/25 11:03:38;;;;;;;10.30;9.20;;;18.90;1.00;;;;;;4988799;28;20472;-67
2022/09/25 11:06:06;;;;;;;9.83;8.83;;;18.80;1.00;;;;;;4988524;28;20415;-67
2022/09/25 11:08:37;;;;;;;38.17;12.67;;;18.60;1.00;;;;;;4987436;28;20463;-66
2022/09/25 11:11:08;;;;;;;29.90;12.30;;;18.60;1.00;;;;;;4969058;28;20440;-67
2022/09/25 11:13:55;;;;;;;25.43;12.40;;;18.50;1.00;;;;;;4981050;28;20467;-65
2022/09/25 11:16:44;;;;;;;40.43;13.63;;;18.40;1.00;;;;;;4988251;28;20455;-67
2022/09/25 11:19:28;;;;;;;28.93;13.00;;;18.40;1.00;;;;;;4979183;28;20429;-67
2022/09/25 11:21:58;;;;;;;15.00;12.90;;;18.30;1.00;;;;;;4984845;28;20456;-66
2022/09/25 11:24:50;;;;;;;14.10;12.70;;;18.30;1.00;;;;;;4987352;28;20503;-66
2022/09/25 11:27:42;;;;;;;23.77;14.87;;;18.30;1.00;;;;;;4989024;28;22186;-65
2022/09/25 11:30:20;;;;;;;47.77;15.03;;;18.20;1.00;;;;;;4986404;28;20420;-64
2022/09/25 11:32:58;;;;;;;11.80;8.23;;;18.20;1.00;;;;;;4987596;28;20467;-66
2022/09/25 11:35:28;;;;;;;33.30;7.73;;;18.00;1.00;;;;;;4990013;28;20740;-66
2022/09/25 11:41:10;;;;;;;12.43;5.97;;;17.90;1.00;;;;;;4989165;28;20415;-66
2022/09/25 11:41:14;;;;;;;126.77;19.47;;;17.80;1.00;;;;;;4993565;28;20427;-68
2022/09/25 11:44:09;;;;;;;56.97;13.37;;;17.70;1.00;;;;;;4982736;28;20546;-67
2022/09/25 11:46:49;;;;;;;19.83;7.50;;;17.70;1.00;;;;;;4983227;28;20495;-68
2022/09/25 11:49:40;;;;;;;12.83;7.60;;;17.70;1.00;;;;;;4987851;28;20428;-67
2022/09/25 11:52:28;;;;;;;10.30;7.00;;;17.80;1.00;;;;;;4986024;28;20490;-69
2022/09/25 11:54:57;;;;;;;10.43;8.23;;;17.70;1.00;;;;;;4973805;28;20428;-68
2022/09/25 11:58:08;;;;;;;14.63;8.20;;;17.70;1.00;;;;;;4987841;28;20424;-68
2022/09/25 12:00:52;;;;;;;7.30;6.40;;;17.70;1.00;;;;;;4980136;28;20445;-67
2022/09/25 12:03:21;;;;;;;9.33;4.27;;;17.50;1.00;;;;;;4985278;28;20960;-68
2022/09/25 12:06:11;;;;;;;6.80;3.53;;;17.50;1.00;;;;;;4988187;28;20417;-67
2022/09/25 12:08:44;;;;;;;7.73;4.33;;;17.50;1.00;;;;;;4988517;28;20804;-69
2022/09/25 12:11:22;;;;;;;4.23;3.20;;;17.50;1.00;;;;;;4987458;28;20549;-70
2022/09/25 12:13:54;;;;;;;11.93;4.13;;;17.40;1.00;;;;;;4987941;28;20885;-66
2022/09/25 12:16:41;;;;;;;8.30;3.10;;;17.50;1.00;;;;;;4986729;28;20814;-66
2022/09/25 12:19:37;;;;;;;21.93;5.90;;;17.60;1.00;;;;;;4984474;28;20489;-65
2022/09/25 12:22:09;;;;;;;10.40;6.50;;;17.70;1.00;;;;;;4984308;28;20467;-67
2022/09/25 12:25:00;;;;;;;8.33;5.70;;;17.70;1.00;;;;;;4982389;28;21248;-67
2022/09/25 12:27:39;;;;;;;14.73;6.90;;;17.70;1.00;;;;;;4986905;28;20416;-69
2022/09/25 12:30:26;;;;;;;26.77;7.67;;;17.60;1.00;;;;;;4987578;28;20418;-67
2022/09/25 12:32:54;;;;;;;64.77;11.83;;;17.50;1.00;;;;;;4984120;28;20928;-67
2022/09/25 12:35:29;;;;;;;31.90;8.87;;;17.50;1.00;;;;;;4987928;28;20420;-67
2022/09/25 12:38:23;;;;;;;14.33;5.00;;;17.50;1.00;;;;;;4988447;28;20466;-67
2022/09/25 12:41:15;;;;;;;27.67;5.20;;;17.60;1.00;;;;;;4985336;28;21043;-67
2022/09/25 12:44:00;;;;;;;34.53;6.07;;;17.70;1.00;;;;;;4984596;28;20837;-67
2022/09/25 12:47:04;;;;;;;12.13;3.70;;;17.70;1.00;;;;;;4986680;28;20527;-67
2022/09/25 12:49:55;;;;;;;31.17;5.90;;;18.00;1.00;;;;;;4980687;28;20459;-68
2022/09/25 12:52:34;;;;;;;13.93;4.10;;;18.10;1.00;;;;;;4986814;28;20443;-68
2022/09/25 12:55:25;;;;;;;4.17;3.73;;;18.00;1.00;;;;;;4986531;28;20423;-66
2022/09/25 12:58:20;;;;;;;19.00;4.67;;;17.90;1.00;;;;;;4984806;28;20454;-67
2022/09/25 13:00:48;;;;;;;6.20;4.40;;;17.90;1.00;;;;;;4984562;28;20428;-67
2022/09/25 13:03:47;;;;;;;6.30;5.13;;;17.90;1.00;;;;;;4987936;28;20832;-66
2022/09/25 13:06:27;;;;;;;7.13;5.30;;;17.80;1.00;;;;;;4986754;28;21246;-67
2022/09/25 13:09:22;;;;;;;7.63;5.30;;;17.30;1.00;;;;;;4989936;28;20428;-67
2022/09/25 13:11:50;;;;;;;32.20;10.67;;;17.20;1.00;;;;;;4985048;28;20439;-67
2022/09/25 13:14:31;;;;;;;8.20;6.07;;;17.40;1.00;;;;;;4988517;28;20474;-68
2022/09/25 13:16:57;;;;;;;32.80;8.57;;;17.60;1.00;;;;;;4991716;28;20428;-67
2022/09/25 13:19:25;;;;;;;33.73;7.40;;;17.70;1.00;;;;;;4991872;28;20427;-65
2022/09/25 13:22:02;;;;;;;39.13;9.07;;;17.70;1.00;;;;;;4990925;28;20200;-69
2022/09/25 13:24:29;;;;;;;11.20;6.27;;;17.80;1.00;;;;;;4994882;28;20419;-66
2022/09/25 13:27:02;;;;;;;15.97;5.47;;;17.70;1.00;;;;;;4989440;28;20972;-68
2022/09/25 13:29:31;;;;;;;8.70;5.30;;;17.70;1.00;;;;;;4991069;28;20415;-66